sensor_id;sensor_type;location;lat;lon;timestamp;P1;durP1;ratioP1;P2;durP2;ratioP2
67696;SDS011;54486;51.442;6.778;2024-03-06T00:00:26;14.10;;;8.02;;
67696;SDS011;54486;51.442;6.778;2024-03-06T00:02:53;14.10;;;8.13;;
67696;SDS011;54486;51.442;6.778;2024-03-06T00:05:21;14.75;;;8.00;;
67696;SDS011;54486;51.442;6.778;2024-03-06T00:07:49;13.27;;;8.05;;
67696;SDS011;54486;51.442;6.778;2024-03-06T00:10:16;13.70;;;7.68;;
67696;SDS011;54486;51.442;6.778;2024-03-06T00:12:43;14.23;;;8.15;;
67696;SDS011;54486;51.442;6.778;2024-03-06T00:15:11;13.85;;;7.30;;
67696;SDS011;54486;51.442;6.778;2024-03-06T00:17:38;14.05;;;7.57;;
67696;SDS011;54486;51.442;6.778;2024-03-06T00:20:05;13.73;;;7.95;;
67696;SDS011;54486;51.442;6.778;2024-03-06T00:22:33;14.00;;;7.78;;
67696;SDS011;54486;51.442;6.778;2024-03-06T00:25:00;14.88;;;7.57;;
67696;SDS011;54486;51.442;6.778;2024-03-06T00:27:28;14.00;;;7.55;;
67696;SDS011;54486;51.442;6.778;2024-03-06T00:29:57;13.67;;;7.37;;
67696;SDS011;54486;51.442;6.778;2024-03-06T00:32:24;13.98;;;7.70;;
67696;SDS011;54486;51.442;6.778;2024-03-06T00:34:52;13.73;;;7.70;;
67696;SDS011;54486;51.442;6.778;2024-03-06T00:37:20;13.80;;;7.68;;
67696;SDS011;54486;51.442;6.778;2024-03-06T00:39:47;14.47;;;7.93;;
67696;SDS011;54486;51.442;6.778;2024-03-06T00:42:15;14.07;;;7.70;;
67696;SDS011;54486;51.442;6.778;2024-03-06T00:44:43;13.88;;;7.38;;
67696;SDS011;54486;51.442;6.778;2024-03-06T00:47:10;14.30;;;7.67;;
67696;SDS011;54486;51.442;6.778;2024-03-06T00:49:37;14.43;;;8.07;;
67696;SDS011;54486;51.442;6.778;2024-03-06T00:52:05;15.65;;;7.93;;
67696;SDS011;54486;51.442;6.778;2024-03-06T00:54:32;13.10;;;7.30;;
67696;SDS011;54486;51.442;6.778;2024-03-06T00:56:59;13.35;;;6.95;;
67696;SDS011;54486;51.442;6.778;2024-03-06T00:59:28;13.37;;;7.20;;
67696;SDS011;54486;51.442;6.778;2024-03-06T01:01:55;14.48;;;7.70;;
67696;SDS011;54486;51.442;6.778;2024-03-06T01:04:25;12.77;;;7.28;;
67696;SDS011;54486;51.442;6.778;2024-03-06T01:06:52;13.02;;;7.32;;
67696;SDS011;54486;51.442;6.778;2024-03-06T01:09:19;13.77;;;7.45;;
67696;SDS011;54486;51.442;6.778;2024-03-06T01:11:46;15.57;;;8.45;;
67696;SDS011;54486;51.442;6.778;2024-03-06T01:14:15;12.57;;;7.82;;
67696;SDS011;54486;51.442;6.778;2024-03-06T01:16:43;14.15;;;7.82;;
67696;SDS011;54486;51.442;6.778;2024-03-06T01:19:10;14.48;;;7.93;;
67696;SDS011;54486;51.442;6.778;2024-03-06T01:21:38;14.77;;;8.35;;
67696;SDS011;54486;51.442;6.778;2024-03-06T01:24:05;13.77;;;7.25;;
67696;SDS011;54486;51.442;6.778;2024-03-06T01:26:32;13.68;;;7.90;;
67696;SDS011;54486;51.442;6.778;2024-03-06T01:29:00;12.73;;;7.45;;
67696;SDS011;54486;51.442;6.778;2024-03-06T01:31:27;14.20;;;7.63;;
67696;SDS011;54486;51.442;6.778;2024-03-06T01:33:55;14.13;;;8.27;;
67696;SDS011;54486;51.442;6.778;2024-03-06T01:36:22;15.32;;;7.53;;
67696;SDS011;54486;51.442;6.778;2024-03-06T01:38:49;13.15;;;7.70;;
67696;SDS011;54486;51.442;6.778;2024-03-06T01:41:16;13.20;;;7.55;;
67696;SDS011;54486;51.442;6.778;2024-03-06T01:43:43;14.25;;;8.00;;
67696;SDS011;54486;51.442;6.778;2024-03-06T01:46:11;14.67;;;8.23;;
67696;SDS011;54486;51.442;6.778;2024-03-06T01:48:38;14.10;;;8.00;;
67696;SDS011;54486;51.442;6.778;2024-03-06T01:51:06;13.43;;;7.22;;
67696;SDS011;54486;51.442;6.778;2024-03-06T01:53:34;14.77;;;8.45;;
67696;SDS011;54486;51.442;6.778;2024-03-06T01:56:03;14.45;;;8.60;;
67696;SDS011;54486;51.442;6.778;2024-03-06T01:58:31;15.98;;;7.93;;
67696;SDS011;54486;51.442;6.778;2024-03-06T02:01:00;14.48;;;7.75;;
67696;SDS011;54486;51.442;6.778;2024-03-06T02:03:29;15.97;;;7.90;;
67696;SDS011;54486;51.442;6.778;2024-03-06T02:05:58;14.60;;;7.93;;
67696;SDS011;54486;51.442;6.778;2024-03-06T02:08:29;16.03;;;9.03;;
67696;SDS011;54486;51.442;6.778;2024-03-06T02:10:57;14.17;;;7.17;;
67696;SDS011;54486;51.442;6.778;2024-03-06T02:13:24;16.17;;;9.00;;
67696;SDS011;54486;51.442;6.778;2024-03-06T02:15:52;14.20;;;7.73;;
67696;SDS011;54486;51.442;6.778;2024-03-06T02:18:19;15.88;;;9.15;;
67696;SDS011;54486;51.442;6.778;2024-03-06T02:20:46;15.25;;;9.00;;
67696;SDS011;54486;51.442;6.778;2024-03-06T02:23:15;15.70;;;8.68;;
67696;SDS011;54486;51.442;6.778;2024-03-06T02:25:46;16.20;;;8.93;;
67696;SDS011;54486;51.442;6.778;2024-03-06T02:28:14;15.40;;;8.82;;
67696;SDS011;54486;51.442;6.778;2024-03-06T02:30:41;15.90;;;9.27;;
67696;SDS011;54486;51.442;6.778;2024-03-06T02:33:08;17.02;;;8.88;;
67696;SDS011;54486;51.442;6.778;2024-03-06T02:35:39;16.08;;;8.35;;
67696;SDS011;54486;51.442;6.778;2024-03-06T02:38:07;16.33;;;8.88;;
67696;SDS011;54486;51.442;6.778;2024-03-06T02:40:34;15.45;;;9.02;;
67696;SDS011;54486;51.442;6.778;2024-03-06T02:43:01;15.27;;;8.73;;
67696;SDS011;54486;51.442;6.778;2024-03-06T02:45:29;15.48;;;8.40;;
67696;SDS011;54486;51.442;6.778;2024-03-06T02:47:56;15.20;;;8.50;;
67696;SDS011;54486;51.442;6.778;2024-03-06T02:50:24;16.03;;;8.93;;
67696;SDS011;54486;51.442;6.778;2024-03-06T02:52:51;14.93;;;8.73;;
67696;SDS011;54486;51.442;6.778;2024-03-06T02:55:21;16.85;;;9.30;;
67696;SDS011;54486;51.442;6.778;2024-03-06T02:57:50;15.52;;;8.68;;
67696;SDS011;54486;51.442;6.778;2024-03-06T03:00:18;16.95;;;9.20;;
67696;SDS011;54486;51.442;6.778;2024-03-06T03:02:45;17.15;;;8.50;;
67696;SDS011;54486;51.442;6.778;2024-03-06T03:05:12;16.65;;;9.32;;
67696;SDS011;54486;51.442;6.778;2024-03-06T03:07:39;16.15;;;9.15;;
67696;SDS011;54486;51.442;6.778;2024-03-06T03:10:07;17.48;;;9.02;;
67696;SDS011;54486;51.442;6.778;2024-03-06T03:12:35;15.47;;;9.40;;
67696;SDS011;54486;51.442;6.778;2024-03-06T03:15:02;16.13;;;8.95;;
67696;SDS011;54486;51.442;6.778;2024-03-06T03:17:30;15.73;;;8.82;;
67696;SDS011;54486;51.442;6.778;2024-03-06T03:19:57;15.40;;;9.30;;
67696;SDS011;54486;51.442;6.778;2024-03-06T03:22:25;17.65;;;9.30;;
67696;SDS011;54486;51.442;6.778;2024-03-06T03:24:52;15.10;;;8.55;;
67696;SDS011;54486;51.442;6.778;2024-03-06T03:27:19;14.77;;;8.10;;
67696;SDS011;54486;51.442;6.778;2024-03-06T03:29:46;16.75;;;9.43;;
67696;SDS011;54486;51.442;6.778;2024-03-06T03:32:13;15.50;;;9.20;;
67696;SDS011;54486;51.442;6.778;2024-03-06T03:34:44;16.35;;;8.60;;
67696;SDS011;54486;51.442;6.778;2024-03-06T03:37:12;15.50;;;8.75;;
67696;SDS011;54486;51.442;6.778;2024-03-06T03:39:40;16.05;;;8.60;;
67696;SDS011;54486;51.442;6.778;2024-03-06T03:42:08;17.52;;;9.02;;
67696;SDS011;54486;51.442;6.778;2024-03-06T03:44:36;16.20;;;8.90;;
67696;SDS011;54486;51.442;6.778;2024-03-06T03:47:03;15.85;;;8.65;;
67696;SDS011;54486;51.442;6.778;2024-03-06T03:49:29;16.73;;;9.20;;
67696;SDS011;54486;51.442;6.778;2024-03-06T03:51:57;16.35;;;9.05;;
67696;SDS011;54486;51.442;6.778;2024-03-06T03:54:24;15.75;;;8.52;;
67696;SDS011;54486;51.442;6.778;2024-03-06T03:56:51;15.67;;;9.07;;
67696;SDS011;54486;51.442;6.778;2024-03-06T03:59:18;15.45;;;8.57;;
67696;SDS011;54486;51.442;6.778;2024-03-06T04:01:45;16.02;;;8.63;;
67696;SDS011;54486;51.442;6.778;2024-03-06T04:04:15;16.87;;;9.33;;
67696;SDS011;54486;51.442;6.778;2024-03-06T04:06:42;15.93;;;8.55;;
67696;SDS011;54486;51.442;6.778;2024-03-06T04:09:09;16.50;;;8.43;;
67696;SDS011;54486;51.442;6.778;2024-03-06T04:11:36;15.77;;;8.85;;
67696;SDS011;54486;51.442;6.778;2024-03-06T04:14:05;17.13;;;9.43;;
67696;SDS011;54486;51.442;6.778;2024-03-06T04:16:34;16.67;;;9.10;;
67696;SDS011;54486;51.442;6.778;2024-03-06T04:19:01;15.30;;;9.07;;
67696;SDS011;54486;51.442;6.778;2024-03-06T04:21:31;17.65;;;9.48;;
67696;SDS011;54486;51.442;6.778;2024-03-06T04:23:58;17.17;;;9.50;;
67696;SDS011;54486;51.442;6.778;2024-03-06T04:26:25;17.10;;;9.82;;
67696;SDS011;54486;51.442;6.778;2024-03-06T04:28:52;16.77;;;9.05;;
67696;SDS011;54486;51.442;6.778;2024-03-06T04:31:19;17.73;;;9.90;;
67696;SDS011;54486;51.442;6.778;2024-03-06T04:33:47;16.95;;;9.38;;
67696;SDS011;54486;51.442;6.778;2024-03-06T04:36:14;16.52;;;9.85;;
67696;SDS011;54486;51.442;6.778;2024-03-06T04:38:41;17.67;;;9.23;;
67696;SDS011;54486;51.442;6.778;2024-03-06T04:41:08;18.08;;;9.52;;
67696;SDS011;54486;51.442;6.778;2024-03-06T04:43:37;15.90;;;8.80;;
67696;SDS011;54486;51.442;6.778;2024-03-06T04:46:05;16.70;;;9.60;;
67696;SDS011;54486;51.442;6.778;2024-03-06T04:48:32;17.00;;;9.50;;
67696;SDS011;54486;51.442;6.778;2024-03-06T04:50:59;16.65;;;9.05;;
67696;SDS011;54486;51.442;6.778;2024-03-06T04:53:27;16.17;;;8.88;;
67696;SDS011;54486;51.442;6.778;2024-03-06T04:55:54;16.42;;;8.70;;
67696;SDS011;54486;51.442;6.778;2024-03-06T04:58:22;15.40;;;9.27;;
67696;SDS011;54486;51.442;6.778;2024-03-06T05:00:49;15.60;;;9.02;;
67696;SDS011;54486;51.442;6.778;2024-03-06T05:03:16;16.80;;;8.87;;
67696;SDS011;54486;51.442;6.778;2024-03-06T05:06:01;18.80;;;9.48;;
67696;SDS011;54486;51.442;6.778;2024-03-06T05:08:46;16.70;;;9.75;;
67696;SDS011;54486;51.442;6.778;2024-03-06T05:11:31;17.25;;;9.13;;
67696;SDS011;54486;51.442;6.778;2024-03-06T05:14:16;17.70;;;10.18;;
67696;SDS011;54486;51.442;6.778;2024-03-06T05:17:02;18.77;;;10.07;;
67696;SDS011;54486;51.442;6.778;2024-03-06T05:19:48;16.75;;;10.50;;
67696;SDS011;54486;51.442;6.778;2024-03-06T05:22:36;18.58;;;9.57;;
67696;SDS011;54486;51.442;6.778;2024-03-06T05:25:20;18.05;;;10.13;;
67696;SDS011;54486;51.442;6.778;2024-03-06T05:28:06;17.55;;;9.15;;
67696;SDS011;54486;51.442;6.778;2024-03-06T05:30:50;18.38;;;9.50;;
67696;SDS011;54486;51.442;6.778;2024-03-06T05:33:35;17.58;;;9.75;;
67696;SDS011;54486;51.442;6.778;2024-03-06T05:36:20;18.40;;;10.30;;
67696;SDS011;54486;51.442;6.778;2024-03-06T05:39:05;18.10;;;10.17;;
67696;SDS011;54486;51.442;6.778;2024-03-06T05:41:51;17.23;;;9.88;;
67696;SDS011;54486;51.442;6.778;2024-03-06T05:44:36;18.23;;;10.10;;
67696;SDS011;54486;51.442;6.778;2024-03-06T05:47:21;19.50;;;10.23;;
67696;SDS011;54486;51.442;6.778;2024-03-06T05:50:05;20.02;;;10.07;;
67696;SDS011;54486;51.442;6.778;2024-03-06T05:52:51;17.67;;;10.30;;
67696;SDS011;54486;51.442;6.778;2024-03-06T05:55:35;19.85;;;10.63;;
67696;SDS011;54486;51.442;6.778;2024-03-06T05:58:20;18.80;;;10.27;;
67696;SDS011;54486;51.442;6.778;2024-03-06T06:00:48;18.27;;;10.68;;
67696;SDS011;54486;51.442;6.778;2024-03-06T06:03:15;17.98;;;10.20;;
67696;SDS011;54486;51.442;6.778;2024-03-06T06:05:42;17.92;;;9.43;;
67696;SDS011;54486;51.442;6.778;2024-03-06T06:08:10;17.88;;;10.20;;
67696;SDS011;54486;51.442;6.778;2024-03-06T06:10:37;16.92;;;9.50;;
67696;SDS011;54486;51.442;6.778;2024-03-06T06:13:04;17.50;;;9.40;;
67696;SDS011;54486;51.442;6.778;2024-03-06T06:15:31;16.88;;;9.88;;
67696;SDS011;54486;51.442;6.778;2024-03-06T06:17:59;17.42;;;9.45;;
67696;SDS011;54486;51.442;6.778;2024-03-06T06:20:27;18.63;;;9.68;;
67696;SDS011;54486;51.442;6.778;2024-03-06T06:22:54;17.95;;;10.05;;
67696;SDS011;54486;51.442;6.778;2024-03-06T06:25:22;17.90;;;9.82;;
67696;SDS011;54486;51.442;6.778;2024-03-06T06:27:50;17.67;;;9.37;;
67696;SDS011;54486;51.442;6.778;2024-03-06T06:30:18;19.92;;;10.57;;
67696;SDS011;54486;51.442;6.778;2024-03-06T06:32:45;18.90;;;10.27;;
67696;SDS011;54486;51.442;6.778;2024-03-06T06:35:13;19.63;;;10.30;;
67696;SDS011;54486;51.442;6.778;2024-03-06T06:37:41;18.33;;;10.63;;
67696;SDS011;54486;51.442;6.778;2024-03-06T06:40:08;19.08;;;9.82;;
67696;SDS011;54486;51.442;6.778;2024-03-06T06:42:36;18.67;;;10.63;;
67696;SDS011;54486;51.442;6.778;2024-03-06T06:45:04;17.85;;;10.45;;
67696;SDS011;54486;51.442;6.778;2024-03-06T06:47:36;19.90;;;10.32;;
67696;SDS011;54486;51.442;6.778;2024-03-06T06:50:04;18.45;;;10.20;;
67696;SDS011;54486;51.442;6.778;2024-03-06T06:52:32;19.42;;;10.68;;
67696;SDS011;54486;51.442;6.778;2024-03-06T06:55:01;18.10;;;10.25;;
67696;SDS011;54486;51.442;6.778;2024-03-06T06:57:29;18.95;;;10.40;;
67696;SDS011;54486;51.442;6.778;2024-03-06T06:59:57;17.77;;;10.50;;
67696;SDS011;54486;51.442;6.778;2024-03-06T07:02:25;19.13;;;10.00;;
67696;SDS011;54486;51.442;6.778;2024-03-06T07:04:52;19.33;;;10.63;;
67696;SDS011;54486;51.442;6.778;2024-03-06T07:07:19;18.98;;;10.80;;
67696;SDS011;54486;51.442;6.778;2024-03-06T07:09:46;18.80;;;10.65;;
67696;SDS011;54486;51.442;6.778;2024-03-06T07:12:13;18.10;;;10.02;;
67696;SDS011;54486;51.442;6.778;2024-03-06T07:14:41;20.02;;;10.52;;
67696;SDS011;54486;51.442;6.778;2024-03-06T07:17:08;18.73;;;10.07;;
67696;SDS011;54486;51.442;6.778;2024-03-06T07:19:36;19.15;;;11.05;;
67696;SDS011;54486;51.442;6.778;2024-03-06T07:22:04;19.17;;;10.48;;
67696;SDS011;54486;51.442;6.778;2024-03-06T07:24:31;19.42;;;10.35;;
67696;SDS011;54486;51.442;6.778;2024-03-06T07:27:00;18.15;;;11.05;;
67696;SDS011;54486;51.442;6.778;2024-03-06T07:29:30;19.25;;;10.70;;
67696;SDS011;54486;51.442;6.778;2024-03-06T07:31:57;20.02;;;11.35;;
67696;SDS011;54486;51.442;6.778;2024-03-06T07:34:25;20.87;;;11.40;;
67696;SDS011;54486;51.442;6.778;2024-03-06T07:36:52;22.55;;;11.93;;
67696;SDS011;54486;51.442;6.778;2024-03-06T07:39:20;23.13;;;12.40;;
67696;SDS011;54486;51.442;6.778;2024-03-06T07:41:47;22.90;;;12.93;;
67696;SDS011;54486;51.442;6.778;2024-03-06T07:44:14;21.77;;;11.95;;
67696;SDS011;54486;51.442;6.778;2024-03-06T07:46:42;23.13;;;12.13;;
67696;SDS011;54486;51.442;6.778;2024-03-06T07:49:09;23.52;;;12.20;;
67696;SDS011;54486;51.442;6.778;2024-03-06T07:51:36;24.40;;;13.02;;
67696;SDS011;54486;51.442;6.778;2024-03-06T07:54:03;25.17;;;13.32;;
67696;SDS011;54486;51.442;6.778;2024-03-06T07:56:30;25.90;;;13.63;;
67696;SDS011;54486;51.442;6.778;2024-03-06T07:58:58;28.08;;;13.73;;
67696;SDS011;54486;51.442;6.778;2024-03-06T08:01:26;25.95;;;13.85;;
67696;SDS011;54486;51.442;6.778;2024-03-06T08:03:55;24.48;;;12.82;;
67696;SDS011;54486;51.442;6.778;2024-03-06T08:06:23;26.48;;;14.02;;
67696;SDS011;54486;51.442;6.778;2024-03-06T08:08:50;27.00;;;13.77;;
67696;SDS011;54486;51.442;6.778;2024-03-06T08:11:19;26.48;;;13.23;;
67696;SDS011;54486;51.442;6.778;2024-03-06T08:13:49;25.98;;;13.98;;
67696;SDS011;54486;51.442;6.778;2024-03-06T08:16:16;25.13;;;13.80;;
67696;SDS011;54486;51.442;6.778;2024-03-06T08:18:44;26.23;;;13.27;;
67696;SDS011;54486;51.442;6.778;2024-03-06T08:21:11;25.55;;;14.25;;
67696;SDS011;54486;51.442;6.778;2024-03-06T08:23:38;26.48;;;13.55;;
67696;SDS011;54486;51.442;6.778;2024-03-06T08:26:05;26.27;;;13.48;;
67696;SDS011;54486;51.442;6.778;2024-03-06T08:28:34;27.93;;;13.80;;
67696;SDS011;54486;51.442;6.778;2024-03-06T08:31:01;26.38;;;14.63;;
67696;SDS011;54486;51.442;6.778;2024-03-06T08:33:29;27.13;;;13.88;;
67696;SDS011;54486;51.442;6.778;2024-03-06T08:35:56;25.17;;;13.52;;
67696;SDS011;54486;51.442;6.778;2024-03-06T08:38:25;28.77;;;14.82;;
67696;SDS011;54486;51.442;6.778;2024-03-06T08:40:52;27.87;;;14.00;;
67696;SDS011;54486;51.442;6.778;2024-03-06T08:43:19;28.10;;;14.77;;
67696;SDS011;54486;51.442;6.778;2024-03-06T08:45:47;26.40;;;14.23;;
67696;SDS011;54486;51.442;6.778;2024-03-06T08:48:14;27.88;;;14.30;;
67696;SDS011;54486;51.442;6.778;2024-03-06T08:50:42;25.08;;;13.63;;
67696;SDS011;54486;51.442;6.778;2024-03-06T08:53:09;26.75;;;13.82;;
67696;SDS011;54486;51.442;6.778;2024-03-06T08:55:37;26.98;;;13.80;;
67696;SDS011;54486;51.442;6.778;2024-03-06T08:58:05;27.15;;;14.13;;
67696;SDS011;54486;51.442;6.778;2024-03-06T09:00:32;28.70;;;14.30;;
67696;SDS011;54486;51.442;6.778;2024-03-06T09:02:59;29.27;;;14.52;;
67696;SDS011;54486;51.442;6.778;2024-03-06T09:05:26;25.83;;;14.13;;
67696;SDS011;54486;51.442;6.778;2024-03-06T09:07:54;26.52;;;13.18;;
67696;SDS011;54486;51.442;6.778;2024-03-06T09:10:21;27.30;;;14.63;;
67696;SDS011;54486;51.442;6.778;2024-03-06T09:12:48;28.05;;;14.60;;
67696;SDS011;54486;51.442;6.778;2024-03-06T09:15:16;28.10;;;15.20;;
67696;SDS011;54486;51.442;6.778;2024-03-06T09:17:43;28.38;;;14.30;;
67696;SDS011;54486;51.442;6.778;2024-03-06T09:20:12;29.10;;;14.47;;
67696;SDS011;54486;51.442;6.778;2024-03-06T09:22:41;29.20;;;13.80;;
67696;SDS011;54486;51.442;6.778;2024-03-06T09:25:11;28.75;;;14.77;;
67696;SDS011;54486;51.442;6.778;2024-03-06T09:27:42;27.73;;;14.55;;
67696;SDS011;54486;51.442;6.778;2024-03-06T09:30:10;26.63;;;14.63;;
67696;SDS011;54486;51.442;6.778;2024-03-06T09:32:40;30.13;;;15.45;;
67696;SDS011;54486;51.442;6.778;2024-03-06T09:35:09;27.48;;;15.50;;
67696;SDS011;54486;51.442;6.778;2024-03-06T09:37:36;29.02;;;15.30;;
67696;SDS011;54486;51.442;6.778;2024-03-06T09:40:03;28.27;;;15.37;;
67696;SDS011;54486;51.442;6.778;2024-03-06T09:42:31;26.48;;;14.38;;
67696;SDS011;54486;51.442;6.778;2024-03-06T09:44:59;26.63;;;15.02;;
67696;SDS011;54486;51.442;6.778;2024-03-06T09:47:26;29.13;;;14.98;;
67696;SDS011;54486;51.442;6.778;2024-03-06T09:49:59;27.23;;;15.07;;
67696;SDS011;54486;51.442;6.778;2024-03-06T09:52:29;27.58;;;14.57;;
67696;SDS011;54486;51.442;6.778;2024-03-06T09:54:57;27.73;;;14.40;;
67696;SDS011;54486;51.442;6.778;2024-03-06T09:57:26;25.50;;;14.30;;
67696;SDS011;54486;51.442;6.778;2024-03-06T09:59:54;28.00;;;14.73;;
67696;SDS011;54486;51.442;6.778;2024-03-06T10:05:21;30.90;;;16.00;;
67696;SDS011;54486;51.442;6.778;2024-03-06T10:07:50;27.40;;;14.65;;
67696;SDS011;54486;51.442;6.778;2024-03-06T10:10:20;26.13;;;14.63;;
67696;SDS011;54486;51.442;6.778;2024-03-06T10:12:49;28.52;;;14.25;;
67696;SDS011;54486;51.442;6.778;2024-03-06T10:15:17;26.50;;;14.23;;
67696;SDS011;54486;51.442;6.778;2024-03-06T10:17:45;27.83;;;15.23;;
67696;SDS011;54486;51.442;6.778;2024-03-06T10:22:52;25.38;;;14.20;;
67696;SDS011;54486;51.442;6.778;2024-03-06T10:25:25;25.77;;;13.77;;
67696;SDS011;54486;51.442;6.778;2024-03-06T10:30:30;26.20;;;13.85;;
67696;SDS011;54486;51.442;6.778;2024-03-06T10:32:58;25.02;;;13.65;;
67696;SDS011;54486;51.442;6.778;2024-03-06T10:35:26;26.88;;;14.45;;
67696;SDS011;54486;51.442;6.778;2024-03-06T10:37:55;26.63;;;13.67;;
67696;SDS011;54486;51.442;6.778;2024-03-06T10:40:22;25.73;;;13.77;;
67696;SDS011;54486;51.442;6.778;2024-03-06T10:42:50;27.48;;;14.98;;
67696;SDS011;54486;51.442;6.778;2024-03-06T10:45:18;27.40;;;14.00;;
67696;SDS011;54486;51.442;6.778;2024-03-06T10:47:50;27.20;;;14.88;;
67696;SDS011;54486;51.442;6.778;2024-03-06T10:50:18;28.13;;;14.17;;
67696;SDS011;54486;51.442;6.778;2024-03-06T10:52:47;29.15;;;15.48;;
67696;SDS011;54486;51.442;6.778;2024-03-06T10:55:18;26.58;;;14.07;;
67696;SDS011;54486;51.442;6.778;2024-03-06T10:57:47;26.55;;;14.63;;
67696;SDS011;54486;51.442;6.778;2024-03-06T11:00:15;25.65;;;14.02;;
67696;SDS011;54486;51.442;6.778;2024-03-06T11:02:46;24.98;;;14.02;;
67696;SDS011;54486;51.442;6.778;2024-03-06T11:05:15;26.40;;;15.07;;
67696;SDS011;54486;51.442;6.778;2024-03-06T11:07:43;26.50;;;13.82;;
67696;SDS011;54486;51.442;6.778;2024-03-06T11:10:10;25.57;;;13.70;;
67696;SDS011;54486;51.442;6.778;2024-03-06T11:12:43;24.85;;;14.27;;
67696;SDS011;54486;51.442;6.778;2024-03-06T11:15:15;24.73;;;13.45;;
67696;SDS011;54486;51.442;6.778;2024-03-06T11:17:45;25.90;;;15.03;;
67696;SDS011;54486;51.442;6.778;2024-03-06T11:28:19;26.98;;;13.73;;
67696;SDS011;54486;51.442;6.778;2024-03-06T11:30:56;26.85;;;14.35;;
67696;SDS011;54486;51.442;6.778;2024-03-06T11:33:44;26.33;;;14.48;;
67696;SDS011;54486;51.442;6.778;2024-03-06T11:36:23;25.67;;;14.57;;
67696;SDS011;54486;51.442;6.778;2024-03-06T11:38:59;26.00;;;14.77;;
67696;SDS011;54486;51.442;6.778;2024-03-06T11:41:30;27.52;;;14.05;;
67696;SDS011;54486;51.442;6.778;2024-03-06T11:43:59;28.02;;;14.98;;
67696;SDS011;54486;51.442;6.778;2024-03-06T11:46:46;27.52;;;14.20;;
67696;SDS011;54486;51.442;6.778;2024-03-06T11:49:25;25.58;;;13.50;;
67696;SDS011;54486;51.442;6.778;2024-03-06T11:51:56;26.15;;;14.05;;
67696;SDS011;54486;51.442;6.778;2024-03-06T11:54:25;27.65;;;15.15;;
67696;SDS011;54486;51.442;6.778;2024-03-06T11:56:54;26.48;;;14.20;;
67696;SDS011;54486;51.442;6.778;2024-03-06T11:59:23;25.27;;;13.55;;
67696;SDS011;54486;51.442;6.778;2024-03-06T12:01:55;26.70;;;13.63;;
67696;SDS011;54486;51.442;6.778;2024-03-06T12:04:24;26.80;;;13.63;;
67696;SDS011;54486;51.442;6.778;2024-03-06T12:06:52;26.50;;;14.18;;
67696;SDS011;54486;51.442;6.778;2024-03-06T12:09:19;23.65;;;13.10;;
67696;SDS011;54486;51.442;6.778;2024-03-06T12:11:47;25.95;;;13.75;;
67696;SDS011;54486;51.442;6.778;2024-03-06T12:14:16;25.02;;;12.85;;
67696;SDS011;54486;51.442;6.778;2024-03-06T12:16:57;25.03;;;13.00;;
67696;SDS011;54486;51.442;6.778;2024-03-06T12:19:26;25.20;;;13.20;;
67696;SDS011;54486;51.442;6.778;2024-03-06T12:21:55;23.67;;;12.30;;
67696;SDS011;54486;51.442;6.778;2024-03-06T12:24:22;25.02;;;12.35;;
67696;SDS011;54486;51.442;6.778;2024-03-06T12:26:58;21.80;;;12.23;;
67696;SDS011;54486;51.442;6.778;2024-03-06T12:29:31;23.60;;;12.75;;
67696;SDS011;54486;51.442;6.778;2024-03-06T12:32:02;25.48;;;13.05;;
67696;SDS011;54486;51.442;6.778;2024-03-06T12:34:30;23.83;;;12.32;;
67696;SDS011;54486;51.442;6.778;2024-03-06T12:37:10;21.47;;;12.07;;
67696;SDS011;54486;51.442;6.778;2024-03-06T12:39:38;26.08;;;12.13;;
67696;SDS011;54486;51.442;6.778;2024-03-06T12:42:09;23.35;;;12.25;;
67696;SDS011;54486;51.442;6.778;2024-03-06T12:44:39;23.95;;;12.23;;
67696;SDS011;54486;51.442;6.778;2024-03-06T12:47:07;22.20;;;11.30;;
67696;SDS011;54486;51.442;6.778;2024-03-06T12:49:34;22.83;;;11.93;;
67696;SDS011;54486;51.442;6.778;2024-03-06T12:52:01;21.63;;;11.60;;
67696;SDS011;54486;51.442;6.778;2024-03-06T12:54:32;22.63;;;11.52;;
67696;SDS011;54486;51.442;6.778;2024-03-06T12:57:00;23.35;;;11.63;;
67696;SDS011;54486;51.442;6.778;2024-03-06T12:59:27;19.15;;;10.48;;
67696;SDS011;54486;51.442;6.778;2024-03-06T13:01:54;20.10;;;10.25;;
67696;SDS011;54486;51.442;6.778;2024-03-06T13:04:22;22.20;;;10.90;;
67696;SDS011;54486;51.442;6.778;2024-03-06T13:06:50;21.20;;;11.40;;
67696;SDS011;54486;51.442;6.778;2024-03-06T13:09:17;18.98;;;9.07;;
67696;SDS011;54486;51.442;6.778;2024-03-06T13:11:43;17.13;;;9.43;;
67696;SDS011;54486;51.442;6.778;2024-03-06T13:14:12;17.38;;;8.93;;
67696;SDS011;54486;51.442;6.778;2024-03-06T13:16:40;17.67;;;9.03;;
67696;SDS011;54486;51.442;6.778;2024-03-06T13:19:07;14.15;;;7.40;;
67696;SDS011;54486;51.442;6.778;2024-03-06T13:21:35;14.77;;;7.78;;
67696;SDS011;54486;51.442;6.778;2024-03-06T13:24:03;16.73;;;7.90;;
67696;SDS011;54486;51.442;6.778;2024-03-06T13:26:31;15.00;;;7.43;;
67696;SDS011;54486;51.442;6.778;2024-03-06T13:28:58;13.80;;;7.10;;
67696;SDS011;54486;51.442;6.778;2024-03-06T13:31:27;13.88;;;6.70;;
67696;SDS011;54486;51.442;6.778;2024-03-06T13:33:54;13.03;;;6.70;;
67696;SDS011;54486;51.442;6.778;2024-03-06T13:36:22;13.15;;;6.32;;
67696;SDS011;54486;51.442;6.778;2024-03-06T13:38:49;12.20;;;5.93;;
67696;SDS011;54486;51.442;6.778;2024-03-06T13:41:18;12.27;;;5.95;;
67696;SDS011;54486;51.442;6.778;2024-03-06T13:43:46;13.15;;;6.20;;
67696;SDS011;54486;51.442;6.778;2024-03-06T13:46:13;12.85;;;5.80;;
67696;SDS011;54486;51.442;6.778;2024-03-06T13:48:41;12.30;;;5.57;;
67696;SDS011;54486;51.442;6.778;2024-03-06T13:51:08;12.32;;;5.90;;
67696;SDS011;54486;51.442;6.778;2024-03-06T13:53:35;10.60;;;5.00;;
67696;SDS011;54486;51.442;6.778;2024-03-06T13:56:03;11.30;;;5.13;;
67696;SDS011;54486;51.442;6.778;2024-03-06T13:58:30;11.70;;;5.47;;
67696;SDS011;54486;51.442;6.778;2024-03-06T14:00:57;10.85;;;5.60;;
67696;SDS011;54486;51.442;6.778;2024-03-06T14:03:25;10.15;;;4.68;;
67696;SDS011;54486;51.442;6.778;2024-03-06T14:05:52;11.23;;;4.93;;
67696;SDS011;54486;51.442;6.778;2024-03-06T14:08:19;12.23;;;5.45;;
67696;SDS011;54486;51.442;6.778;2024-03-06T14:10:48;11.63;;;5.43;;
67696;SDS011;54486;51.442;6.778;2024-03-06T14:13:16;12.27;;;5.32;;
67696;SDS011;54486;51.442;6.778;2024-03-06T14:15:43;10.73;;;4.87;;
67696;SDS011;54486;51.442;6.778;2024-03-06T14:18:11;11.27;;;5.38;;
67696;SDS011;54486;51.442;6.778;2024-03-06T14:20:38;10.80;;;5.05;;
67696;SDS011;54486;51.442;6.778;2024-03-06T14:23:07;11.05;;;4.95;;
67696;SDS011;54486;51.442;6.778;2024-03-06T14:25:35;13.05;;;5.93;;
67696;SDS011;54486;51.442;6.778;2024-03-06T14:28:04;11.45;;;5.28;;
67696;SDS011;54486;51.442;6.778;2024-03-06T14:30:32;11.80;;;5.22;;
67696;SDS011;54486;51.442;6.778;2024-03-06T14:32:59;10.75;;;5.10;;
67696;SDS011;54486;51.442;6.778;2024-03-06T14:35:26;10.00;;;4.53;;
67696;SDS011;54486;51.442;6.778;2024-03-06T14:37:54;10.95;;;5.40;;
67696;SDS011;54486;51.442;6.778;2024-03-06T14:40:21;10.50;;;4.60;;
67696;SDS011;54486;51.442;6.778;2024-03-06T14:42:48;10.82;;;4.82;;
67696;SDS011;54486;51.442;6.778;2024-03-06T14:45:18;10.87;;;5.00;;
67696;SDS011;54486;51.442;6.778;2024-03-06T14:47:45;11.35;;;5.35;;
67696;SDS011;54486;51.442;6.778;2024-03-06T14:50:12;11.50;;;5.32;;
67696;SDS011;54486;51.442;6.778;2024-03-06T14:52:40;10.75;;;5.15;;
67696;SDS011;54486;51.442;6.778;2024-03-06T14:55:07;11.75;;;5.72;;